Time;durP1;ratioP1;P1;durP2;ratioP2;P2;SDS_P1;SDS_P2;PMS_P1;PMS_P2;Temp;Humidity;BMP_temperature;BMP_pressure;BME280_temperature;BME280_humidity;BME280_pressure;Samples;Min_cycle;Max_cycle;Signal;HPM_P1;HPM_P2
2022/08/24 00:01:01;;;;;;;12.75;8.25;;;;;;;30.33;71.46;97900.69;4892935;29;20068;-72
2022/08/24 00:03:45;;;;;;;9.32;8.35;;;;;;;30.46;71.50;97904.91;4893034;29;20350;-71
2022/08/24 00:06:37;;;;;;;11.55;8.80;;;;;;;30.38;71.70;97908.69;4890618;29;20144;-72
2022/08/24 00:09:26;;;;;;;13.38;8.85;;;;;;;30.00;73.05;97929.63;4892432;29;20306;-72
2022/08/24 00:12:16;;;;;;;11.00;9.05;;;;;;;30.05;73.15;97929.34;4894395;28;20068;-71
2022/08/24 00:15:05;;;;;;;10.50;8.88;;;;;;;29.90;74.26;97933.75;4909515;29;20135;-71
2022/08/24 00:17:47;;;;;;;9.77;8.43;;;;;;;29.93;73.68;97944.13;4911618;29;20151;-70
2022/08/24 00:20:36;;;;;;;11.18;8.95;;;;;;;30.05;73.67;97938.44;4910914;29;20472;-71
2022/08/24 00:23:25;;;;;;;12.15;9.27;;;;;;;29.76;73.93;97948.06;4892646;29;20116;-73
2022/08/24 00:26:09;;;;;;;14.07;8.60;;;;;;;29.76;74.34;97959.13;4892810;29;20052;-72
2022/08/24 00:29:09;;;;;;;11.32;9.13;;;;;;;29.67;74.52;97962.09;4891987;29;20878;-70
2022/08/24 00:31:52;;;;;;;12.25;8.55;;;;;;;29.75;74.46;97957.56;4891995;29;20072;-72
2022/08/24 00:34:42;;;;;;;11.05;9.05;;;;;;;30.05;73.51;97959.78;4891760;29;20124;-71
2022/08/24 00:37:40;;;;;;;9.88;8.60;;;;;;;29.98;73.31;97962.38;4863191;29;20047;-71
2022/08/24 00:40:34;;;;;;;11.13;8.40;;;;;;;29.86;73.68;97966.88;4894044;29;20051;-72
2022/08/24 00:43:17;;;;;;;10.57;8.40;;;;;;;29.77;74.45;97977.34;4912231;29;20483;-71
2022/08/24 00:46:15;;;;;;;9.32;8.02;;;;;;;30.13;73.10;97983.66;4895321;29;20380;-71
2022/08/24 00:49:24;;;;;;;8.57;7.72;;;;;;;29.82;73.67;97993.66;4910823;29;20138;-72
2022/08/24 00:52:27;;;;;;;8.15;6.93;;;;;;;29.55;74.71;98005.63;4894664;29;20563;-72
2022/08/24 00:55:27;;;;;;;13.13;7.95;;;;;;;30.07;73.30;98018.31;4893799;29;20044;-70
2022/08/24 00:58:35;;;;;;;9.15;7.28;;;;;;;29.85;73.18;98020.59;4894638;29;20048;-71
2022/08/24 01:01:24;;;;;;;10.82;7.15;;;;;;;29.29;75.28;98026.28;4876313;29;20609;-72
2022/08/24 01:04:19;;;;;;;14.27;7.32;;;;;;;29.44;74.33;98042.06;4889805;29;20040;-70
2022/08/24 01:07:03;;;;;;;11.20;6.85;;;;;;;29.08;76.15;98043.06;4892028;29;20067;-71
2022/08/24 01:09:55;;;;;;;10.27;7.07;;;;;;;29.45;74.94;98045.66;4875051;29;20055;-73
2022/08/24 01:12:40;;;;;;;13.52;6.97;;;;;;;29.56;74.33;98049.50;4873586;28;20045;-73
2022/08/24 01:15:46;;;;;;;14.13;7.45;;;;;;;29.68;73.42;98046.63;4871754;29;20057;-72
2022/08/24 01:18:50;;;;;;;16.27;7.43;;;;;;;29.55;74.01;98047.88;4871563;29;20649;-72
2022/08/24 01:21:57;;;;;;;7.95;6.30;;;;;;;29.74;73.43;98049.97;4872667;29;20093;-72
2022/08/24 01:24:35;;;;;;;10.25;7.15;;;;;;;29.90;72.76;98051.91;4872546;29;20614;-72
2022/08/24 01:27:34;;;;;;;8.55;6.63;;;;;;;29.80;72.73;98054.06;4855908;29;20052;-72
2022/08/24 01:30:13;;;;;;;11.25;7.35;;;;;;;29.99;73.17;98055.28;4871473;29;20481;-72
2022/08/24 01:33:21;;;;;;;11.43;6.78;;;;;;;30.15;72.50;98061.63;4872268;29;20056;-71
2022/08/24 01:36:30;;;;;;;12.73;6.55;;;;;;;29.89;72.63;98064.16;4871548;29;20045;-72
2022/08/24 01:39:46;;;;;;;10.27;7.17;;;;;;;29.91;72.56;98068.16;4871439;29;20049;-73
2022/08/24 01:42:35;;;;;;;8.75;6.55;;;;;;;30.32;71.67;98068.72;4865335;29;20064;-72
2022/08/24 01:45:18;;;;;;;11.30;7.32;;;;;;;30.07;72.00;98076.44;4871301;29;20088;-71
2022/08/24 01:48:10;;;;;;;10.13;7.40;;;;;;;30.08;72.28;98089.13;4870435;29;20629;-71
2022/08/24 01:50:52;;;;;;;15.20;7.57;;;;;;;30.14;72.39;98086.88;4871743;29;20465;-72
2022/08/24 01:53:42;;;;;;;8.82;6.82;;;;;;;30.35;72.37;98083.84;4871336;29;20053;-72
2022/08/24 01:56:33;;;;;;;11.98;7.68;;;;;;;30.41;71.88;98083.19;4871235;29;20155;-73
2022/08/24 01:59:22;;;;;;;10.20;7.78;;;;;;;30.57;71.08;98083.16;4870992;29;20053;-72
2022/08/24 02:02:18;;;;;;;11.80;7.85;;;;;;;30.92;70.27;98098.16;4872413;29;20059;-72
2022/08/24 02:05:08;;;;;;;12.00;7.53;;;;;;;31.11;69.84;98097.31;4871209;29;20505;-72
2022/08/24 02:07:52;;;;;;;9.63;7.80;;;;;;;31.15;69.73;98092.66;4868622;29;20049;-72
2022/08/24 02:10:41;;;;;;;15.05;8.73;;;;;;;30.75;70.10;98091.03;4852864;29;20053;-72
2022/08/24 02:13:47;;;;;;;9.70;8.48;;;;;;;30.97;69.85;98103.38;4882785;28;20045;-72
2022/08/24 02:16:37;;;;;;;16.42;8.90;;;;;;;31.15;70.13;98092.66;4889970;29;20437;-73
2022/08/24 02:19:32;;;;;;;14.55;9.27;;;;;;;30.97;69.84;98098.63;4890876;29;20072;-72
2022/08/24 02:22:27;;;;;;;11.25;8.38;;;;;;;31.50;68.35;98095.31;4881795;29;20480;-72
2022/08/24 02:25:04;;;;;;;13.07;7.68;;;;;;;31.86;66.87;98093.19;4873914;29;20040;-72
2022/08/24 02:28:00;;;;;;;;;;;;;;;32.50;65.99;98087.84;4875047;29;20063;-72
2022/08/24 02:30:36;;;;;;;11.07;7.47;;;;;;;32.13;66.09;98094.03;4873846;29;19938;-72
2022/08/24 02:33:24;;;;;;;16.85;8.02;;;;;;;32.47;65.23;98094.16;4888779;29;20064;-72
2022/08/24 02:36:16;;;;;;;13.18;7.45;;;;;;;32.38;65.07;98097.19;4876092;29;20127;-71
2022/08/24 02:39:14;;;;;;;24.73;10.25;;;;;;;32.20;65.19;98098.91;4889970;29;20063;-72
2022/08/24 02:41:51;;;;;;;11.88;7.80;;;;;;;32.53;64.87;98106.53;4889615;29;20060;-72
2022/08/24 02:44:45;;;;;;;18.42;7.80;;;;;;;32.66;64.98;98111.91;4890623;29;20048;-71
2022/08/24 02:47:23;;;;;;;10.80;7.82;;;;;;;32.85;63.72;98125.66;4890522;29;20048;-71
2022/08/24 02:50:19;;;;;;;10.32;7.72;;;;;;;32.65;64.73;98127.75;4890174;29;20795;-71
2022/08/24 02:53:07;;;;;;;11.43;8.35;;;;;;;32.26;65.82;98124.38;4890683;29;20469;-73
2022/08/24 02:55:56;;;;;;;18.67;7.43;;;;;;;32.25;65.99;98125.53;4889533;29;20048;-71
2022/08/24 02:58:45;;;;;;;10.13;7.00;;;;;;;32.36;65.38;98120.97;4855305;29;20057;-72
2022/08/24 03:01:40;;;;;;;13.25;7.00;;;;;;;32.81;63.53;98118.44;4889468;29;20055;-71
2022/08/24 03:04:17;;;;;;;12.50;7.30;;;;;;;32.65;63.57;98133.31;4889870;29;20059;-72
2022/08/24 03:07:07;;;;;;;7.80;6.78;;;;;;;32.64;63.52;98140.06;4873610;29;20083;-70
2022/08/24 03:09:49;;;;;;;9.05;6.45;;;;;;;32.75;62.68;98131.84;4873735;29;20545;-71
2022/08/24 03:12:45;;;;;;;11.10;6.55;;;;;;;32.91;62.83;98140.81;4876021;28;20080;-71
2022/08/24 03:15:45;;;;;;;14.95;6.90;;;;;;;32.64;63.79;98142.03;4893798;29;20116;-71
2022/08/24 03:18:21;;;;;;;10.85;6.70;;;;;;;32.78;63.67;98145.78;4876724;29;20066;-71
2022/08/24 03:21:13;;;;;;;12.80;6.50;;;;;;;32.46;63.09;98155.63;4876885;29;20052;-70
2022/08/24 03:24:05;;;;;;;11.52;6.50;;;;;;;32.64;63.63;98159.50;4858758;29;20049;-72
2022/08/24 03:27:03;;;;;;;12.87;7.50;;;;;;;32.80;63.75;98162.09;4858339;29;20076;-72
2022/08/24 03:29:39;;;;;;;9.82;6.68;;;;;;;33.02;62.88;98168.75;4868349;29;20053;-71
2022/08/24 03:32:36;;;;;;;9.25;6.88;;;;;;;32.66;63.26;98161.91;4872145;29;20720;-72
2022/08/24 03:35:13;;;;;;;14.32;7.10;;;;;;;32.24;63.93;98171.16;4876594;29;20060;-70
2022/08/24 03:38:03;;;;;;;14.88;6.75;;;;;;;32.80;62.89;98173.22;4877213;29;20128;-71
2022/08/24 03:40:51;;;;;;;15.30;7.40;;;;;;;32.44;64.00;98166.31;4876777;29;20053;-71
2022/08/24 03:43:47;;;;;;;10.02;6.80;;;;;;;32.60;65.09;98180.88;4876798;29;20810;-71
2022/08/24 03:46:41;;;;;;;11.95;6.70;;;;;;;32.98;62.05;98179.03;4876368;29;20081;-73
2022/08/24 03:49:33;;;;;;;9.05;6.28;;;;;;;33.22;62.39;98185.31;4872562;29;20045;-72
2022/08/24 03:52:23;;;;;;;13.05;7.35;;;;;;;33.04;62.84;98193.38;4857044;29;20049;-71
2022/08/24 03:55:14;;;;;;;11.48;6.07;;;;;;;33.13;61.92;98199.50;4860694;29;20392;-71
2022/08/24 03:58:03;;;;;;;13.43;6.70;;;;;;;33.38;61.04;98190.66;4876181;29;20539;-72
2022/08/24 04:00:53;;;;;;;8.52;5.55;;;;;;;33.91;59.54;98196.03;4873588;29;20053;-72
2022/08/24 04:03:48;;;;;;;10.68;6.28;;;;;;;33.66;61.00;98199.38;4858902;29;20064;-72
2022/08/24 04:06:37;;;;;;;12.60;6.03;;;;;;;33.68;60.28;98199.00;4893692;29;20058;-72
2022/08/24 04:09:27;;;;;;;8.70;6.07;;;;;;;34.08;59.27;98205.75;4894678;29;20551;-71
2022/08/24 04:12:10;;;;;;;12.30;5.93;;;;;;;34.01;59.68;98205.69;4894576;29;20139;-71
2022/08/24 04:15:09;;;;;;;8.95;6.00;;;;;;;34.03;59.33;98209.69;4897808;28;20056;-72
2022/08/24 04:18:04;;;;;;;10.90;6.20;;;;;;;33.62;60.11;98214.41;4895054;28;20048;-71
2022/08/24 04:20:53;;;;;;;13.40;6.50;;;;;;;33.76;58.68;98216.56;4892165;29;20101;-72
2022/08/24 04:23:42;;;;;;;13.38;5.55;;;;;;;34.11;57.63;98207.78;4855286;29;20461;-72
2022/08/24 04:26:30;;;;;;;6.88;5.38;;;;;;;34.10;58.17;98217.31;4854350;29;20057;-72
2022/08/24 04:29:26;;;;;;;9.57;5.70;;;;;;;34.22;59.26;98210.66;4873288;29;20531;-73
2022/08/24 04:32:15;;;;;;;10.77;6.30;;;;;;;34.34;59.27;98221.53;4873802;29;20049;-73
2022/08/24 04:35:00;;;;;;;10.50;5.82;;;;;;;34.28;58.28;98215.53;4872857;29;20064;-73
2022/08/24 04:37:49;;;;;;;14.15;5.88;;;;;;;33.87;57.78;98211.91;4872601;29;20053;-73
2022/08/24 04:40:31;;;;;;;11.75;6.07;;;;;;;34.89;58.52;98213.22;4873539;29;20044;-73
2022/08/24 04:43:22;;;;;;;19.58;6.13;;;;;;;34.02;57.75;98213.66;4872608;29;20049;-72
2022/08/24 04:46:09;;;;;;;9.95;5.20;;;;;;;34.12;57.73;98210.16;4874044;29;20500;-72
2022/08/24 04:48:59;;;;;;;7.72;4.70;;;;;;;34.20;57.52;98207.47;4872430;29;20134;-72
2022/08/24 04:51:42;;;;;;;11.20;5.80;;;;;;;34.43;57.12;98212.84;4872672;29;20049;-71
2022/08/24 04:54:32;;;;;;;8.57;5.55;;;;;;;34.07;57.88;98210.53;4872651;29;20060;-72
2022/08/24 04:57:27;;;;;;;9.32;5.45;;;;;;;34.07;58.54;98213.31;4872625;29;25532;-72
2022/08/24 05:00:10;;;;;;;12.45;5.68;;;;;;;33.72;58.75;98211.75;4873201;29;20056;-74
2022/08/24 05:02:59;;;;;;;12.23;6.40;;;;;;;34.14;58.40;98205.00;4859594;29;20048;-73
2022/08/24 05:05:45;;;;;;;8.35;5.38;;;;;;;33.85;58.22;98214.28;4872277;29;20053;-71
2022/08/24 05:08:34;;;;;;;;;;;;;;;35.09;56.66;98210.91;4852081;29;20053;-70
2022/08/24 05:11:18;;;;;;;7.60;5.82;;;;;;;35.31;56.38;98208.25;4854635;29;19968;-70
2022/08/24 05:14:07;;;;;;;9.27;5.68;;;;;;;34.99;57.90;98220.03;4869473;29;20049;-70
2022/08/24 05:16:57;;;;;;;11.32;6.00;;;;;;;36.20;53.95;98209.72;4863085;28;20052;-71
2022/08/24 05:19:57;;;;;;;9.65;5.88;;;;;;;35.35;56.26;98202.69;4853341;29;20097;-70
2022/08/24 05:22:34;;;;;;;10.45;5.43;;;;;;;35.19;55.85;98206.59;4866366;29;20068;-71
2022/08/24 05:25:38;;;;;;;9.52;5.00;;;;;;;35.83;56.19;98210.84;4857133;29;20049;-71
2022/08/24 05:28:28;;;;;;;8.32;5.13;;;;;;;35.57;53.41;98207.16;4856127;29;20053;-71
2022/08/24 05:31:23;;;;;;;7.93;4.85;;;;;;;35.28;54.54;98201.47;4872472;29;20052;-70
2022/08/24 05:34:11;;;;;;;6.88;4.97;;;;;;;34.78;55.24;98203.16;4856073;29;20061;-71
2022/08/24 05:37:03;;;;;;;7.90;4.95;;;;;;;35.52;54.18;98190.00;4856212;29;20052;-70
2022/08/24 05:40:14;;;;;;;10.55;4.82;;;;;;;35.06;56.47;98189.41;4855347;29;20064;-70
2022/08/24 05:43:04;;;;;;;15.70;5.03;;;;;;;35.66;56.14;98190.06;4872902;29;20056;-71
2022/08/24 05:45:52;;;;;;;7.32;5.50;;;;;;;35.46;54.55;98181.19;4856124;29;20744;-72
2022/08/24 05:48:48;;;;;;;9.23;5.55;;;;;;;35.42;54.53;98175.59;4855670;29;20628;-72
2022/08/24 05:51:31;;;;;;;6.50;5.10;;;;;;;34.90;55.61;98178.53;4843043;29;20152;-70
2022/08/24 05:54:27;;;;;;;10.77;5.72;;;;;;;34.49;57.35;98178.66;4855608;29;20069;-71
2022/08/24 05:57:05;;;;;;;9.57;5.15;;;;;;;35.02;56.05;98168.25;4855830;29;20144;-72
2022/08/24 06:00:11;;;;;;;10.57;5.30;;;;;;;34.98;56.58;98165.44;4855759;29;20048;-68
2022/08/24 06:03:00;;;;;;;10.93;5.38;;;;;;;35.46;56.98;98175.63;4840271;29;20079;-71
2022/08/24 06:05:57;;;;;;;6.47;5.00;;;;;;;35.86;53.60;98168.16;4870831;29;20135;-70
2022/08/24 06:08:49;;;;;;;8.73;4.82;;;;;;;35.11;53.51;98163.13;4855590;29;20089;-71
2022/08/24 06:11:36;;;;;;;6.65;5.03;;;;;;;35.95;55.49;98167.78;4855593;29;20055;-71
2022/08/24 06:14:24;;;;;;;6.47;4.50;;;;;;;36.28;50.27;98163.03;4855662;29;20068;-71
2022/08/24 06:17:07;;;;;;;6.63;4.85;;;;;;;36.46;51.91;98155.44;4855047;29;20056;-71
2022/08/24 06:20:03;;;;;;;8.90;5.20;;;;;;;36.37;51.57;98149.47;4874378;28;20496;-71
2022/08/24 06:22:53;;;;;;;8.73;4.88;;;;;;;36.22;52.21;98146.66;4873166;29;20127;-69
2022/08/24 06:28:53;;;;;;;8.52;5.00;;;;;;;35.67;51.42;98152.56;4871142;29;20059;-71
2022/08/24 06:31:50;;;;;;;8.45;4.78;;;;;;;36.01;53.02;98147.44;4870772;29;20139;-69
2022/08/24 06:34:38;;;;;;;8.35;4.10;;;;;;;35.93;52.10;98148.63;4871142;29;20120;-70
2022/08/24 06:37:27;;;;;;;6.30;3.80;;;;;;;36.42;52.17;98144.25;4857442;29;20073;-71
2022/08/24 06:40:20;;;;;;;17.10;4.53;;;;;;;35.73;52.73;98144.63;4870766;29;20083;-70
2022/08/24 06:43:09;;;;;;;14.20;3.90;;;;;;;35.17;53.67;98138.44;4870754;29;20049;-70
2022/08/24 06:45:59;;;;;;;9.90;4.43;;;;;;;34.87;53.24;98145.88;4871251;29;20053;-69
2022/08/24 06:48:46;;;;;;;5.63;4.38;;;;;;;34.57;53.48;98142.47;4873694;29;20509;-69
2022/08/24 06:51:41;;;;;;;8.48;4.30;;;;;;;35.99;52.82;98130.28;4875295;29;20060;-69
2022/08/24 06:54:23;;;;;;;4.13;3.47;;;;;;;35.74;52.49;98129.47;4874465;29;20152;-70
2022/08/24 06:57:13;;;;;;;13.00;4.68;;;;;;;35.99;51.53;98130.28;4874412;29;20045;-70
2022/08/24 07:00:03;;;;;;;9.93;4.07;;;;;;;35.85;52.28;98127.50;4874935;29;20075;-70
2022/08/24 07:02:45;;;;;;;6.90;4.00;;;;;;;37.03;50.94;98130.16;4875151;29;20140;-70
2022/08/24 07:05:35;;;;;;;7.82;4.25;;;;;;;36.90;49.40;98129.00;4877035;29;20115;-71
2022/08/24 07:08:45;;;;;;;6.60;4.57;;;;;;;36.59;51.04;98122.25;4876650;29;20053;-71
2022/08/24 07:11:27;;;;;;;5.70;4.20;;;;;;;36.44;51.72;98116.72;4873728;29;20067;-71
2022/08/24 07:14:24;;;;;;;5.63;4.53;;;;;;;35.30;52.30;98120.19;4873865;29;20049;-71
2022/08/24 07:17:01;;;;;;;7.30;4.30;;;;;;;35.91;53.59;98111.94;4872952;29;20055;-70
2022/08/24 07:19:56;;;;;;;7.50;4.53;;;;;;;36.47;50.50;98114.31;4884386;28;20052;-71
2022/08/24 07:23:25;;;;;;;4.53;3.40;;;;;;;36.17;49.83;98110.78;4859763;29;20056;-71
2022/08/24 07:26:24;;;;;;;3.25;2.85;;;;;;;36.34;50.37;98106.34;4880972;29;20063;-71
2022/08/24 07:29:18;;;;;;;8.73;3.75;;;;;;;36.21;51.60;98107.94;4876554;29;20748;-72
2022/08/24 07:32:28;;;;;;;5.88;4.10;;;;;;;35.66;52.48;98101.53;4881119;29;20057;-72
2022/08/24 07:35:11;;;;;;;7.88;4.20;;;;;;;35.34;54.29;98106.25;4879261;29;20056;-70
2022/08/24 07:38:08;;;;;;;5.75;4.43;;;;;;;35.42;52.80;98102.28;4880518;29;20405;-71
2022/08/24 07:40:46;;;;;;;5.97;3.78;;;;;;;35.56;52.00;98093.13;4880133;29;20045;-71
2022/08/24 07:43:55;;;;;;;9.43;3.90;;;;;;;35.52;52.93;98101.47;4884986;29;20063;-72
2022/08/24 07:46:37;;;;;;;9.25;3.75;;;;;;;35.49;52.02;98091.91;4874734;29;20045;-72
2022/08/24 07:49:26;;;;;;;6.55;3.47;;;;;;;36.14;51.84;98088.41;4880178;29;20143;-72
2022/08/24 07:52:17;;;;;;;9.23;3.30;;;;;;;36.11;52.23;98092.75;4881925;29;20064;-70
2022/08/24 07:55:14;;;;;;;4.85;3.25;;;;;;;36.16;51.16;98081.19;4882737;29;20041;-69
2022/08/24 07:57:50;;;;;;;11.80;4.00;;;;;;;36.09;53.66;98088.78;4880732;29;20075;-70
2022/08/24 08:00:45;;;;;;;;;;;;;;;34.81;54.31;98082.53;4883091;29;20059;-70
2022/08/24 08:03:22;;;;;;;7.13;4.15;;;;;;;35.51;52.50;98079.56;4882717;29;19983;-70
2022/08/24 08:06:18;;;;;;;13.38;3.65;;;;;;;35.79;52.54;98079.63;4867297;29;20077;-71
2022/08/24 08:08:59;;;;;;;7.85;3.58;;;;;;;35.64;53.63;98070.41;4883525;29;20049;-70
2022/08/24 08:11:49;;;;;;;7.10;4.28;;;;;;;35.47;53.57;98054.47;4882212;29;20136;-70
2022/08/24 08:14:39;;;;;;;5.85;3.97;;;;;;;35.65;54.09;98066.41;4882384;29;20492;-71
2022/08/24 08:17:23;;;;;;;6.25;3.38;;;;;;;34.94;54.17;98060.69;4873022;29;20540;-71
2022/08/24 08:20:14;;;;;;;4.95;3.88;;;;;;;34.72;53.12;98063.38;4855064;29;20063;-71
2022/08/24 08:26:51;;;;;;;6.63;3.50;;;;;;;35.65;53.38;98032.91;4868543;29;20060;-70
2022/08/24 08:29:44;;;;;;;10.52;3.60;;;;;;;35.02;52.57;98029.63;4890990;29;20049;-72
2022/08/24 08:32:33;;;;;;;8.25;3.50;;;;;;;35.46;53.35;98027.72;4890997;29;20054;-70
2022/08/24 08:35:29;;;;;;;7.20;3.55;;;;;;;35.62;54.43;98024.56;4890962;29;20803;-70
2022/08/24 08:38:07;;;;;;;6.05;3.42;;;;;;;35.63;54.52;98024.16;4891026;29;20500;-69
2022/08/24 08:41:43;;;;;;;7.18;3.28;;;;;;;35.16;54.01;98026.09;4891689;29;20054;-69
2022/08/24 08:44:42;;;;;;;8.20;3.50;;;;;;;34.50;54.02;98029.00;4890624;29;20048;-69
2022/08/24 08:48:02;;;;;;;10.27;3.17;;;;;;;34.68;54.50;98020.75;4890915;29;20057;-70
2022/08/24 08:51:19;;;;;;;5.85;3.30;;;;;;;34.90;54.43;98014.06;4891224;29;20107;-69
2022/08/24 08:54:17;;;;;;;8.23;3.20;;;;;;;35.09;53.66;98012.91;4891231;29;20093;-70
2022/08/24 08:57:06;;;;;;;9.27;3.25;;;;;;;35.84;52.88;98000.25;4890772;29;20056;-70
2022/08/24 09:00:13;;;;;;;7.88;3.38;;;;;;;35.80;52.81;97988.28;4890889;29;20119;-70
2022/08/24 09:03:16;;;;;;;4.47;2.90;;;;;;;34.94;54.06;98004.91;4890703;29;20136;-70
2022/08/24 09:06:40;;;;;;;7.07;3.17;;;;;;;35.03;53.38;97994.97;4890715;29;20044;-70
2022/08/24 09:09:53;;;;;;;7.68;3.00;;;;;;;35.46;53.03;97989.47;4874499;29;20131;-70
2022/08/24 09:13:18;;;;;;;9.00;3.40;;;;;;;35.29;52.30;97988.28;4875674;29;20055;-69
2022/08/24 09:16:44;;;;;;;6.25;3.03;;;;;;;35.60;52.15;97980.31;4876433;29;20045;-70
2022/08/24 09:19:35;;;;;;;5.55;2.97;;;;;;;35.15;52.69;97984.63;4859687;29;20079;-70
2022/08/24 09:22:24;;;;;;;5.10;3.03;;;;;;;35.27;52.42;97975.91;4891094;29;20139;-68
2022/08/24 09:25:27;;;;;;;6.97;3.28;;;;;;;34.81;53.78;97977.38;4872479;29;20059;-70
2022/08/24 09:28:39;;;;;;;;;;;;;;;35.43;52.28;97972.75;4871972;29;20541;-70
2022/08/24 09:31:31;;;;;;;6.78;3.33;;;;;;;35.30;53.42;97961.19;4872362;29;20023;-70
2022/08/24 09:34:48;;;;;;;6.20;3.38;;;;;;;35.36;53.17;97959.56;4872366;29;20098;-70
2022/08/24 09:37:59;;;;;;;5.55;3.25;;;;;;;35.76;52.40;97951.22;4872699;29;20097;-71
2022/08/24 09:40:53;;;;;;;5.35;3.35;;;;;;;35.90;52.49;97953.97;4872434;29;20052;-72
2022/08/24 09:43:42;;;;;;;4.47;3.30;;;;;;;35.55;52.40;97946.41;4872574;29;20085;-70
2022/08/24 09:46:49;;;;;;;10.10;4.07;;;;;;;34.90;54.41;97932.41;4872475;29;20498;-71
2022/08/24 09:49:55;;;;;;;9.10;4.78;;;;;;;35.02;54.25;97943.19;4871413;29;20060;-71
2022/08/24 09:53:14;;;;;;;8.48;4.60;;;;;;;35.14;53.77;97936.44;4872309;29;20057;-70
2022/08/24 09:56:27;;;;;;;6.00;4.03;;;;;;;35.26;52.76;97930.47;4871970;29;20053;-71
2022/08/24 09:59:38;;;;;;;7.53;4.65;;;;;;;34.85;52.77;97924.44;4853361;29;20098;-70
2022/08/24 10:02:30;;;;;;;7.68;4.63;;;;;;;34.99;52.87;97915.31;4853900;29;20068;-71
2022/08/24 10:05:39;;;;;;;4.95;4.55;;;;;;;35.17;54.21;97904.97;4857408;29;20064;-71
2022/08/24 10:09:04;;;;;;;5.80;4.35;;;;;;;35.18;52.47;97895.44;4868863;29;20057;-71
2022/08/24 10:12:29;;;;;;;6.22;5.63;;;;;;;35.53;52.78;97885.44;4859742;29;20132;-72
2022/08/24 10:15:33;;;;;;;8.50;5.75;;;;;;;34.79;54.64;97882.22;4871417;29;20056;-70
2022/08/24 10:18:49;;;;;;;10.60;6.68;;;;;;;34.88;53.96;97882.63;4872093;29;20044;-69
2022/08/24 10:22:00;;;;;;;10.55;6.00;;;;;;;35.18;52.94;97872.28;4874040;29;20111;-70
2022/08/24 10:25:01;;;;;;;9.38;6.22;;;;;;;35.29;52.87;97884.25;4865467;28;20069;-71
2022/08/24 10:27:59;;;;;;;16.00;6.53;;;;;;;34.99;53.03;97881.84;4896609;29;20498;-71
2022/08/24 10:30:54;;;;;;;7.50;6.70;;;;;;;34.89;53.34;97872.25;4905371;29;20059;-70
2022/08/24 10:34:01;;;;;;;7.35;6.53;;;;;;;34.79;54.13;97868.28;4915778;29;20523;-69
2022/08/24 10:37:08;;;;;;;9.15;6.22;;;;;;;34.98;53.29;97858.72;4898502;29;20051;-69
2022/08/24 10:40:18;;;;;;;10.45;6.20;;;;;;;35.42;52.85;97873.47;4915769;29;20048;-69
2022/08/24 10:43:36;;;;;;;7.65;6.93;;;;;;;35.28;53.51;97874.31;4898823;29;20111;-70
2022/08/24 10:46:15;;;;;;;8.57;6.85;;;;;;;34.79;54.26;97873.84;4915127;29;20150;-71
2022/08/24 10:49:28;;;;;;;8.23;7.05;;;;;;;35.17;53.32;97867.91;4915917;29;20115;-71
2022/08/24 10:52:35;;;;;;;9.75;6.70;;;;;;;34.65;53.83;97865.47;4914604;29;20413;-70
2022/08/24 10:55:28;;;;;;;10.60;7.80;;;;;;;34.82;54.33;97858.34;4915165;29;20392;-71
2022/08/24 10:59:02;;;;;;;7.43;6.68;;;;;;;34.65;54.81;97860.69;4884509;29;20088;-69
2022/08/24 11:02:13;;;;;;;9.40;6.85;;;;;;;35.02;53.39;97855.94;4896379;29;20048;-71
2022/08/24 11:04:59;;;;;;;7.47;6.15;;;;;;;34.87;53.55;97855.97;4896676;29;20670;-70
2022/08/24 11:11:49;;;;;;;6.10;5.38;;;;;;;35.31;53.67;97847.59;4879451;29;20049;-71
2022/08/24 11:14:47;;;;;;;10.30;5.78;;;;;;;34.41;53.78;97845.50;4896309;29;20044;-71
2022/08/24 11:18:07;;;;;;;9.50;5.55;;;;;;;35.08;51.93;97844.00;4896411;29;20402;-71
2022/08/24 11:21:04;;;;;;;9.55;5.65;;;;;;;35.56;52.92;97839.97;4867517;29;20044;-70
2022/08/24 11:24:00;;;;;;;7.65;5.93;;;;;;;35.68;52.48;97839.56;4897850;29;20766;-71
2022/08/24 11:27:04;;;;;;;7.40;5.05;;;;;;;35.33;52.59;97834.81;4900698;28;20059;-71
2022/08/24 11:29:56;;;;;;;9.00;5.38;;;;;;;35.63;53.21;97839.94;4904366;29;20736;-71
2022/08/24 11:32:51;;;;;;;6.60;5.38;;;;;;;35.45;53.53;97842.78;4907698;29;20151;-73
2022/08/24 11:35:40;;;;;;;7.65;5.22;;;;;;;35.28;54.83;97838.81;4874911;29;20057;-71
2022/08/24 11:38:30;;;;;;;9.00;5.85;;;;;;;35.38;54.10;97833.63;4874637;29;20056;-71
2022/08/24 11:41:32;;;;;;;11.85;5.00;;;;;;;35.06;54.30;97835.25;4872260;29;20528;-70
2022/08/24 11:44:48;;;;;;;9.00;5.53;;;;;;;35.03;54.83;97836.03;4858292;29;20484;-70
2022/08/24 11:47:52;;;;;;;8.77;5.40;;;;;;;34.74;55.77;97832.47;4873611;29;20053;-72
2022/08/24 11:51:03;;;;;;;6.50;5.45;;;;;;;34.87;56.44;97838.41;4873395;29;20060;-70
2022/08/24 11:54:04;;;;;;;7.78;5.70;;;;;;;34.73;56.27;97838.41;4873261;29;20048;-71
2022/08/24 11:57:09;;;;;;;8.98;5.57;;;;;;;34.69;55.72;97838.41;4877812;29;20413;-71
2022/08/24 12:00:04;;;;;;;5.20;4.70;;;;;;;34.90;56.17;97841.22;4892011;29;20737;-70
2022/08/24 12:03:09;;;;;;;12.18;5.38;;;;;;;34.85;55.50;97830.47;4884389;29;20528;-72
2022/08/24 12:06:07;;;;;;;13.93;6.13;;;;;;;34.45;56.77;97835.19;4891846;29;20054;-72
2022/08/24 12:09:21;;;;;;;5.90;4.72;;;;;;;34.22;56.68;97831.91;4891490;29;20059;-72
2022/08/24 12:12:28;;;;;;;6.60;5.40;;;;;;;34.31;57.13;97837.91;4891337;29;20484;-71
2022/08/24 12:15:57;;;;;;;5.53;4.75;;;;;;;34.45;56.37;97835.19;4891358;29;20495;-71
2022/08/24 12:19:17;;;;;;;9.13;5.00;;;;;;;34.60;56.56;97835.19;4888031;29;20684;-71
2022/08/24 12:22:03;;;;;;;5.78;4.63;;;;;;;34.57;56.38;97828.44;4898917;29;20080;-70
2022/08/24 12:26:00;;;;;;;7.25;4.53;;;;;;;34.55;56.22;97824.41;4905714;29;20048;-72
2022/08/24 12:28:22;;;;;;;10.43;4.53;;;;;;;34.41;56.31;97828.78;4874917;29;20041;-71
2022/08/24 12:31:51;;;;;;;5.50;4.78;;;;;;;34.29;55.94;97832.72;4890949;29;20072;-72
2022/08/24 12:35:00;;;;;;;9.68;4.70;;;;;;;34.35;55.26;97832.34;4891513;29;20061;-71
2022/08/24 12:38:06;;;;;;;9.05;5.18;;;;;;;34.64;55.90;97839.59;4888823;29;20049;-72
2022/08/24 12:40:52;;;;;;;6.60;4.50;;;;;;;34.19;56.83;97843.88;4888864;29;20060;-69
2022/08/24 12:44:08;;;;;;;9.30;5.07;;;;;;;34.36;57.05;97842.28;4889938;29;20083;-70
2022/08/24 12:46:59;;;;;;;11.80;5.32;;;;;;;34.44;57.84;97850.28;4893806;29;20048;-70
2022/08/24 12:49:56;;;;;;;7.20;4.97;;;;;;;34.17;58.29;97862.94;4878360;29;20143;-71
2022/08/24 12:53:09;;;;;;;9.18;5.75;;;;;;;34.14;59.29;97868.06;4881226;29;20080;-71
2022/08/24 12:56:25;;;;;;;11.75;6.18;;;;;;;33.67;61.21;97869.03;4891120;29;20044;-70
2022/08/24 12:59:30;;;;;;;8.82;6.15;;;;;;;33.46;62.17;97869.66;4871617;29;20521;-70
2022/08/24 13:02:18;;;;;;;6.13;5.50;;;;;;;33.79;59.30;97876.28;4878458;29;20433;-71
2022/08/24 13:05:27;;;;;;;9.10;5.90;;;;;;;33.09;62.00;97879.69;4888614;29;20713;-70
2022/08/24 13:08:43;;;;;;;9.75;5.30;;;;;;;32.87;62.61;97872.38;4890093;29;20048;-70
2022/08/24 13:11:38;;;;;;;11.30;5.10;;;;;;;32.65;61.43;97866.59;4889422;29;20863;-70
2022/08/24 13:14:35;;;;;;;9.57;5.05;;;;;;;32.50;62.30;97873.97;4871430;29;20069;-71
2022/08/24 13:17:11;;;;;;;8.50;5.00;;;;;;;32.65;60.83;97869.38;4872211;29;20061;-72
2022/08/24 13:20:23;;;;;;;6.35;4.88;;;;;;;32.66;60.62;97871.00;4856035;29;20140;-70
2022/08/24 13:23:22;;;;;;;7.32;5.25;;;;;;;32.63;61.64;97879.28;4884113;29;20159;-70
2022/08/24 13:26:32;;;;;;;8.52;4.60;;;;;;;32.30;62.79;97878.13;4871533;28;20080;-70
2022/08/24 13:29:35;;;;;;;8.90;5.20;;;;;;;31.94;65.32;97891.50;4861304;28;20053;-71
2022/08/24 13:32:52;;;;;;;8.68;6.13;;;;;;;32.09;66.22;97887.78;4881025;28;20049;-71
2022/08/24 13:35:41;;;;;;;19.10;7.63;;;;;;;31.80;67.04;97900.44;4873084;29;20060;-71
2022/08/24 13:38:42;;;;;;;12.15;7.72;;;;;;;31.53;69.80;97894.13;4871545;29;20056;-72
2022/08/24 13:41:46;;;;;;;11.05;7.63;;;;;;;31.47;68.02;97906.69;4871225;29;20117;-72
2022/08/24 13:44:58;;;;;;;13.95;6.95;;;;;;;31.88;66.82;97910.47;4842880;29;20091;-72
2022/08/24 13:48:01;;;;;;;11.60;7.00;;;;;;;31.70;64.08;97918.56;4872589;29;20060;-71
2022/08/24 13:50:59;;;;;;;11.77;5.35;;;;;;;31.23;67.37;97939.97;4872219;29;20096;-71
2022/08/24 13:53:56;;;;;;;11.55;5.07;;;;;;;31.28;69.04;97947.19;4885167;29;20852;-71
2022/08/24 13:56:52;;;;;;;11.10;5.23;;;;;;;30.98;72.43;97960.91;4892789;29;20532;-70